Time;durP1;ratioP1;P1;durP2;ratioP2;P2;SDS_P1;SDS_P2;PMS_P1;PMS_P2;Temp;Humidity;BMP_temperature;BMP_pressure;BME280_temperature;BME280_humidity;BME280_pressure;Samples;Min_cycle;Max_cycle;Signal;HPM_P1;HPM_P2
2022/06/01 00:01:05;;;;;;;5.78;5.28;;;;;;;12.55;100.00;95777.06;5093551;28;20526;-62
2022/06/01 00:03:34;;;;;;;5.00;4.70;;;;;;;12.52;100.00;95778.22;5098457;28;20032;-62
2022/06/01 00:05:59;;;;;;;6.05;5.55;;;;;;;12.49;100.00;95778.50;5099507;28;20020;-62
2022/06/01 00:08:26;;;;;;;7.90;5.65;;;;;;;12.46;100.00;95774.34;5102716;27;20034;-62
2022/06/01 00:10:52;;;;;;;6.10;5.70;;;;;;;12.45;100.00;95774.50;5103246;27;20032;-62
2022/06/01 00:13:19;;;;;;;6.25;5.65;;;;;;;12.39;100.00;95775.94;5107016;27;20520;-62
2022/06/01 00:15:44;;;;;;;5.53;5.13;;;;;;;12.36;100.00;95780.69;5106446;27;20065;-62
2022/06/01 00:18:10;;;;;;;5.80;5.35;;;;;;;12.32;100.00;95785.44;5104472;27;20020;-62
2022/06/01 00:20:36;;;;;;;5.68;5.03;;;;;;;12.29;100.00;95786.59;5108146;27;20034;-62
2022/06/01 00:23:02;;;;;;;4.85;4.45;;;;;;;12.27;100.00;95787.69;5109848;27;20015;-62
2022/06/01 00:25:28;;;;;;;5.72;4.90;;;;;;;12.26;100.00;95796.59;5103122;27;20024;-62
2022/06/01 00:27:54;;;;;;;5.15;4.82;;;;;;;12.27;100.00;95790.34;5105566;27;20026;-62
2022/06/01 00:30:21;;;;;;;4.22;3.90;;;;;;;12.27;100.00;95799.09;5104915;27;20437;-62
2022/06/01 00:32:47;;;;;;;4.70;4.38;;;;;;;12.16;100.00;95791.38;5111632;27;20098;-62
2022/06/01 00:35:14;;;;;;;3.60;3.40;;;;;;;12.11;100.00;95791.00;5099485;27;20031;-62
2022/06/01 00:37:40;;;;;;;4.03;3.83;;;;;;;12.03;100.00;95786.47;5099202;27;20515;-62
2022/06/01 00:40:07;;;;;;;5.10;4.18;;;;;;;11.97;100.00;95793.13;5105615;27;20110;-62
2022/06/01 00:42:35;;;;;;;4.10;3.90;;;;;;;11.88;100.00;95789.56;5101747;27;20028;-62
2022/06/01 00:45:02;;;;;;;6.60;3.72;;;;;;;11.85;100.00;95791.69;5099338;27;20024;-62
2022/06/01 00:47:28;;;;;;;5.40;3.78;;;;;;;11.88;100.00;95786.94;5106493;27;20063;-62
2022/06/01 00:49:53;;;;;;;4.25;3.85;;;;;;;11.88;100.00;95788.75;5103528;27;20541;-62
2022/06/01 00:52:35;;;;;;;4.03;3.75;;;;;;;11.86;100.00;95788.91;5100182;27;20016;-62
2022/06/01 00:55:05;;;;;;;4.10;3.72;;;;;;;11.86;100.00;95788.91;5100555;27;20090;-62
2022/06/01 00:57:31;;;;;;;3.70;3.40;;;;;;;11.83;100.00;95783.09;5097760;27;20039;-62
2022/06/01 00:59:59;;;;;;;3.90;3.70;;;;;;;11.82;100.00;95784.06;5095768;27;20102;-62
2022/06/01 01:02:24;;;;;;;5.68;3.53;;;;;;;11.78;100.00;95778.25;5100675;27;20078;-63
2022/06/01 01:04:50;;;;;;;3.75;3.50;;;;;;;11.75;100.00;95789.09;5106084;27;20047;-62
2022/06/01 01:07:15;;;;;;;5.55;3.78;;;;;;;11.69;100.00;95773.84;5096322;27;20024;-61
2022/06/01 01:09:41;;;;;;;4.00;3.35;;;;;;;11.69;100.00;95771.22;5108688;27;20499;-61
2022/06/01 01:12:10;;;;;;;4.43;3.38;;;;;;;11.67;100.00;95771.38;5103269;27;20448;-62
2022/06/01 01:14:41;;;;;;;4.18;3.63;;;;;;;11.65;100.00;95768.06;5107877;27;20027;-62
2022/06/01 01:17:06;;;;;;;3.67;3.38;;;;;;;11.60;100.00;95768.50;5099689;27;20447;-62
2022/06/01 01:19:41;;;;;;;9.38;3.42;;;;;;;11.53;100.00;95770.06;5104247;27;20047;-62
2022/06/01 01:22:19;;;;;;;;;;;;;;;11.44;100.00;95763.84;5110404;27;20077;-62
2022/06/01 01:25:06;;;;;;;2.85;2.65;;;;;;;11.42;100.00;95762.31;5108599;27;20017;-62
2022/06/01 01:27:31;;;;;;;6.18;3.05;;;;;;;11.39;100.00;95766.09;5100779;27;20172;-62
2022/06/01 01:29:57;;;;;;;3.13;2.95;;;;;;;11.34;100.00;95760.41;5106616;27;20069;-62
2022/06/01 01:32:22;;;;;;;3.35;3.10;;;;;;;11.26;100.00;95762.94;5112972;27;20039;-62
2022/06/01 01:34:48;;;;;;;2.92;2.83;;;;;;;11.20;100.00;95761.72;5104612;27;20019;-61
2022/06/01 01:37:19;;;;;;;2.83;2.72;;;;;;;11.17;100.00;95765.50;5111480;27;20034;-62
2022/06/01 01:39:45;;;;;;;3.05;2.95;;;;;;;11.17;100.00;95764.66;5101313;27;20401;-61
2022/06/01 01:42:10;;;;;;;3.15;3.05;;;;;;;11.19;100.00;95765.31;5105391;27;20028;-62
2022/06/01 01:45:00;;;;;;;3.60;3.40;;;;;;;11.18;100.00;95756.59;5099727;27;20028;-62
2022/06/01 01:47:28;;;;;;;3.17;3.00;;;;;;;11.14;100.00;95757.03;5102422;27;20034;-62
2022/06/01 01:49:53;;;;;;;3.13;2.95;;;;;;;11.11;100.00;95760.78;5103511;27;20076;-62
2022/06/01 01:52:19;;;;;;;3.50;3.05;;;;;;;11.09;100.00;95762.72;5105421;27;20024;-62
2022/06/01 01:55:03;;;;;;;4.65;3.33;;;;;;;11.09;100.00;95770.63;5096670;27;20161;-62
2022/06/01 01:57:53;;;;;;;3.40;3.10;;;;;;;11.02;100.00;95764.28;5106385;27;20380;-62
2022/06/01 02:00:29;;;;;;;3.72;3.38;;;;;;;11.01;100.00;95762.63;5097881;27;20043;-62
2022/06/01 02:03:13;;;;;;;2.92;2.80;;;;;;;10.99;100.00;95759.31;5104253;27;20028;-62
2022/06/01 02:06:04;;;;;;;5.32;3.10;;;;;;;10.93;100.00;95751.94;5106906;27;20031;-62
2022/06/01 02:08:49;;;;;;;3.17;3.08;;;;;;;10.94;100.00;95759.72;5104685;27;20039;-62
2022/06/01 02:14:22;;;;;;;3.45;3.13;;;;;;;10.86;100.00;95756.97;5099104;27;20034;-62
2022/06/01 02:16:56;;;;;;;3.97;3.67;;;;;;;10.87;100.00;95756.00;5098914;27;20110;-62
2022/06/01 02:19:27;;;;;;;3.95;3.65;;;;;;;10.89;100.00;95746.97;5101836;27;20036;-62
2022/06/01 02:21:54;;;;;;;3.80;3.50;;;;;;;10.88;100.00;95747.13;5100962;27;20039;-62
2022/06/01 02:24:22;;;;;;;4.10;3.47;;;;;;;10.85;100.00;95750.88;5102840;27;20028;-62
2022/06/01 02:26:49;;;;;;;6.85;4.88;;;;;;;10.88;100.00;95747.13;5097866;27;20056;-62
2022/06/01 02:29:19;;;;;;;8.57;4.60;;;;;;;10.89;100.00;95743.53;5105584;27;20103;-61
2022/06/01 02:31:46;;;;;;;5.35;4.38;;;;;;;10.88;100.00;95742.66;5100255;28;20031;-62
2022/06/01 02:34:13;;;;;;;5.15;4.80;;;;;;;10.89;100.00;95746.97;5109516;27;20502;-62
2022/06/01 02:36:41;;;;;;;8.23;5.57;;;;;;;10.91;100.00;95740.72;5104597;27;20039;-62
2022/06/01 02:39:10;;;;;;;6.00;5.40;;;;;;;10.89;100.00;95741.69;5104483;27;20076;-62
2022/06/01 02:44:20;;;;;;;5.95;5.43;;;;;;;10.96;100.00;95744.59;5101133;27;20130;-62
2022/06/01 02:46:45;;;;;;;7.53;5.80;;;;;;;10.94;100.00;95735.16;5099169;27;20521;-62
2022/06/01 02:49:11;;;;;;;6.40;5.90;;;;;;;10.91;100.00;95738.09;5103033;27;20048;-62
2022/06/01 02:51:37;;;;;;;7.97;6.05;;;;;;;10.86;100.00;95743.81;5104922;27;20053;-62
2022/06/01 02:54:02;;;;;;;10.35;7.50;;;;;;;10.84;100.00;95729.94;5102841;27;20046;-62
2022/06/01 02:56:28;;;;;;;7.72;7.03;;;;;;;10.84;100.00;95732.59;5107099;27;20051;-62
2022/06/01 02:58:53;;;;;;;9.07;6.55;;;;;;;10.86;100.00;95735.91;5100356;27;20024;-61
2022/06/01 03:01:19;;;;;;;7.30;6.70;;;;;;;10.85;100.00;95727.16;5099055;27;20055;-61
2022/06/01 03:03:44;;;;;;;6.65;5.95;;;;;;;10.83;100.00;95731.75;5102059;27;20019;-61
2022/06/01 03:06:10;;;;;;;5.63;5.07;;;;;;;10.75;100.00;95735.09;5086150;28;20028;-62
2022/06/01 03:08:35;;;;;;;5.75;5.20;;;;;;;10.70;100.00;95741.75;5110106;27;20057;-62
2022/06/01 03:11:01;;;;;;;7.10;5.32;;;;;;;10.71;100.00;95738.13;5099478;27;20023;-62
2022/06/01 03:13:26;;;;;;;6.88;6.20;;;;;;;10.71;100.00;95735.50;5103040;27;20106;-62
2022/06/01 03:15:53;;;;;;;6.50;5.80;;;;;;;10.70;100.00;95728.56;5098831;27;20024;-61
2022/06/01 03:18:19;;;;;;;7.57;5.70;;;;;;;10.69;100.00;95734.81;5098891;27;20020;-61
2022/06/01 03:20:44;;;;;;;5.60;5.20;;;;;;;10.66;100.00;95730.69;5095483;27;20034;-61
2022/06/01 03:23:10;;;;;;;5.32;4.82;;;;;;;10.65;100.00;95734.28;5098354;27;20099;-61
2022/06/01 03:25:38;;;;;;;6.25;4.70;;;;;;;10.62;100.00;95731.09;5103470;27;20069;-62
2022/06/01 03:28:05;;;;;;;5.78;4.70;;;;;;;10.56;100.00;95735.97;5098508;27;20020;-62
2022/06/01 03:30:32;;;;;;;6.95;6.00;;;;;;;10.55;100.00;95733.44;5106049;27;20482;-61
2022/06/01 03:32:58;;;;;;;7.55;6.85;;;;;;;10.56;100.00;95737.75;5106208;27;20016;-62
2022/06/01 03:35:26;;;;;;;6.80;6.20;;;;;;;10.59;100.00;95734.81;5101863;27;20024;-61
2022/06/01 03:37:52;;;;;;;7.70;7.00;;;;;;;10.60;100.00;95741.75;5108299;27;20049;-62
2022/06/01 03:40:19;;;;;;;14.00;7.00;;;;;;;10.60;100.00;95742.59;5105398;28;20033;-62
2022/06/01 03:42:45;;;;;;;7.90;7.18;;;;;;;10.64;100.00;95747.56;5103968;27;20114;-62
2022/06/01 03:47:55;;;;;;;5.05;4.70;;;;;;;10.66;100.00;95748.25;5102526;28;20043;-62
2022/06/01 03:50:23;;;;;;;5.13;4.70;;;;;;;10.62;100.00;95744.25;5104209;28;20494;-61
2022/06/01 03:52:49;;;;;;;6.30;4.13;;;;;;;10.60;100.00;95742.59;5107631;27;20395;-61
2022/06/01 03:55:14;;;;;;;4.90;3.90;;;;;;;10.59;100.00;95743.56;5082968;28;20036;-62
2022/06/01 03:57:41;;;;;;;4.45;3.97;;;;;;;10.60;100.00;95741.75;5109107;28;20031;-61
2022/06/01 04:00:08;;;;;;;5.45;4.38;;;;;;;10.53;100.00;95745.94;5101860;28;20172;-62
2022/06/01 04:02:34;;;;;;;5.93;4.30;;;;;;;10.52;100.00;95745.13;5100714;28;20021;-62
2022/06/01 04:04:59;;;;;;;4.50;4.10;;;;;;;10.49;100.00;95745.38;5102240;28;20504;-62
2022/06/01 04:07:25;;;;;;;4.70;4.30;;;;;;;10.48;100.00;95745.53;5099670;28;20016;-61
2022/06/01 04:09:51;;;;;;;4.68;4.38;;;;;;;10.48;100.00;95741.06;5102447;28;20028;-61
2022/06/01 04:12:17;;;;;;;5.57;4.03;;;;;;;10.49;100.00;95734.84;5099465;28;20027;-61
2022/06/01 04:14:42;;;;;;;4.93;4.00;;;;;;;10.51;100.00;95737.34;5100656;28;20504;-61
2022/06/01 04:17:07;;;;;;;4.40;4.15;;;;;;;10.49;100.00;95739.28;5094795;28;20016;-61
2022/06/01 04:19:33;;;;;;;4.80;4.40;;;;;;;10.52;100.00;95739.84;5096439;28;20031;-61
2022/06/01 04:21:58;;;;;;;4.68;4.30;;;;;;;10.56;100.00;95737.75;5095375;28;20644;-61
2022/06/01 04:24:27;;;;;;;8.93;4.13;;;;;;;10.61;100.00;95732.91;5102446;28;20024;-61
2022/06/01 04:26:53;;;;;;;5.97;4.35;;;;;;;10.63;100.00;95732.75;5099926;28;20032;-62
2022/06/01 04:29:18;;;;;;;4.30;3.97;;;;;;;10.64;100.00;95734.41;5097711;28;20103;-61
2022/06/01 04:31:44;;;;;;;4.68;4.18;;;;;;;10.71;100.00;95738.97;5102090;28;20482;-61
2022/06/01 04:34:10;;;;;;;12.00;10.63;;;;;;;10.75;100.00;95740.34;5102723;28;20437;-61
2022/06/01 04:36:35;;;;;;;6.55;5.07;;;;;;;10.85;100.00;95744.78;5108310;28;20026;-61
2022/06/01 04:39:01;;;;;;;5.22;4.93;;;;;;;10.91;100.00;95743.34;5107345;27;20073;-62
2022/06/01 04:41:27;;;;;;;5.95;5.43;;;;;;;10.96;100.00;95746.41;5106554;28;20027;-61
2022/06/01 04:43:52;;;;;;;5.80;5.40;;;;;;;11.02;100.00;95761.63;5084431;28;20024;-61
2022/06/01 04:46:18;;;;;;;5.63;5.22;;;;;;;11.09;100.00;95757.44;5094689;28;20111;-61
2022/06/01 04:48:43;;;;;;;5.88;5.38;;;;;;;11.13;100.00;95753.56;5103686;28;20051;-61
2022/06/01 04:51:08;;;;;;;8.65;7.80;;;;;;;11.25;100.00;95759.47;5079882;28;20380;-61
2022/06/01 04:53:34;;;;;;;8.35;7.75;;;;;;;11.34;100.00;95763.03;5108709;27;20031;-61
2022/06/01 04:55:59;;;;;;;12.32;8.82;;;;;;;11.43;100.00;95764.84;5102959;27;20063;-62
2022/06/01 04:58:25;;;;;;;11.35;9.20;;;;;;;11.49;100.00;95766.03;5110682;27;20024;-62
2022/06/01 05:00:50;;;;;;;9.95;9.15;;;;;;;11.59;100.00;95752.81;5106579;27;20313;-61
2022/06/01 05:03:15;;;;;;;9.48;8.48;;;;;;;11.65;100.00;95751.41;5092101;27;20027;-61
2022/06/01 05:05:41;;;;;;;10.48;9.70;;;;;;;11.71;100.00;95750.78;5108434;27;20027;-61
2022/06/01 05:08:09;;;;;;;11.40;10.30;;;;;;;11.80;100.00;95757.84;5107744;27;20473;-60
2022/06/01 05:10:35;;;;;;;12.15;11.18;;;;;;;11.92;100.00;95762.88;5109458;27;20020;-61
2022/06/01 05:13:01;;;;;;;12.48;11.38;;;;;;;12.01;100.00;95747.03;5102795;27;20616;-61
2022/06/01 05:15:27;;;;;;;12.27;9.10;;;;;;;12.03;100.00;95760.91;5106989;27;20032;-61
2022/06/01 05:17:52;;;;;;;14.18;8.40;;;;;;;12.07;100.00;95758.00;5106856;27;20035;-61
2022/06/01 05:20:18;;;;;;;10.35;9.43;;;;;;;12.16;100.00;95754.44;5104370;28;20072;-61
2022/06/01 05:22:43;;;;;;;11.57;10.55;;;;;;;12.16;100.00;95746.53;5107293;27;20034;-62
2022/06/01 05:25:10;;;;;;;11.52;10.52;;;;;;;12.21;100.00;95752.16;5113135;27;20016;-61
2022/06/01 05:27:35;;;;;;;12.80;11.65;;;;;;;12.28;100.00;95753.25;5099116;27;20413;-61
2022/06/01 05:30:01;;;;;;;22.02;20.25;;;;;;;12.43;100.00;95752.69;5105777;27;20102;-61
2022/06/01 05:32:27;;;;;;;20.02;18.40;;;;;;;12.58;100.00;95750.34;5110811;27;20418;-61
2022/06/01 05:34:53;;;;;;;14.82;13.63;;;;;;;12.57;100.00;95753.97;5107588;27;20114;-62
2022/06/01 05:37:18;;;;;;;17.42;15.95;;;;;;;12.60;100.00;95751.84;5107848;27;20561;-62
2022/06/01 05:39:43;;;;;;;35.85;32.55;;;;;;;12.66;100.00;95746.94;5100744;27;20408;-61
2022/06/01 05:42:09;;;;;;;35.92;32.85;;;;;;;12.69;100.00;95746.63;5094948;27;20036;-62
2022/06/01 05:44:35;;;;;;;31.42;28.73;;;;;;;12.81;100.00;95741.91;5094516;27;20522;-61
2022/06/01 05:47:01;;;;;;;26.75;24.45;;;;;;;12.91;100.00;95737.38;5097825;27;20030;-62
2022/06/01 05:49:27;;;;;;;22.38;20.40;;;;;;;12.97;100.00;95742.03;5099764;27;20089;-61
2022/06/01 05:51:53;;;;;;;17.48;16.08;;;;;;;13.03;100.00;95740.59;5095664;27;20039;-61
2022/06/01 05:54:19;;;;;;;19.90;17.92;;;;;;;13.13;100.00;95746.59;5084265;28;20036;-62
2022/06/01 05:56:46;;;;;;;18.98;17.00;;;;;;;13.27;100.00;95747.00;5101731;27;20043;-62
2022/06/01 05:59:11;;;;;;;16.52;13.20;;;;;;;13.31;100.00;95748.34;5096754;27;20012;-62
2022/06/01 06:01:37;;;;;;;13.48;12.20;;;;;;;13.47;100.00;95747.59;5097631;27;20540;-62
2022/06/01 06:04:03;;;;;;;12.15;10.57;;;;;;;13.62;100.00;95747.84;5084803;28;20039;-62
2022/06/01 06:06:28;;;;;;;14.27;11.35;;;;;;;13.82;100.00;95747.59;5108396;27;20028;-61
2022/06/01 06:08:59;;;;;;;11.13;10.13;;;;;;;13.96;100.00;95741.66;5104349;27;20026;-62
2022/06/01 06:11:27;;;;;;;10.35;9.45;;;;;;;14.25;100.00;95743.03;5102019;27;20031;-62
2022/06/01 06:13:53;;;;;;;15.20;13.77;;;;;;;14.52;100.00;95750.84;5097343;27;20035;-62
2022/06/01 06:16:19;;;;;;;23.77;21.35;;;;;;;14.67;100.00;95749.19;5099372;27;20039;-62
2022/06/01 06:18:45;;;;;;;25.08;23.00;;;;;;;14.84;100.00;95755.34;5103011;27;20143;-60
2022/06/01 06:21:10;;;;;;;19.17;17.33;;;;;;;14.97;100.00;95749.50;5102966;27;20023;-61
2022/06/01 06:23:35;;;;;;;18.83;17.40;;;;;;;15.23;100.00;95750.31;5103863;27;20043;-60
2022/06/01 06:26:01;;;;;;;18.83;17.17;;;;;;;15.41;98.78;95750.91;5101792;27;20023;-61
2022/06/01 06:28:27;;;;;;;24.88;22.70;;;;;;;15.82;97.67;95757.88;5093581;27;20047;-60
2022/06/01 06:30:53;;;;;;;21.25;19.60;;;;;;;16.20;95.22;95757.22;5092381;27;20039;-60
2022/06/01 06:33:18;;;;;;;14.85;13.45;;;;;;;16.68;92.88;95759.69;5089954;28;20454;-60
2022/06/01 06:35:44;;;;;;;12.80;11.70;;;;;;;16.98;90.86;95759.78;5101805;27;20015;-60
2022/06/01 06:38:10;;;;;;;15.13;13.27;;;;;;;17.21;89.18;95763.41;5102641;27;20024;-62
2022/06/01 06:40:36;;;;;;;11.05;10.10;;;;;;;17.53;86.24;95764.06;5109037;27;20043;-61
2022/06/01 06:43:03;;;;;;;9.80;9.02;;;;;;;17.92;85.24;95764.78;5098464;27;20158;-61
2022/06/01 06:45:29;;;;;;;9.68;8.77;;;;;;;18.12;81.29;95773.03;5100869;27;20035;-61
2022/06/01 06:47:54;;;;;;;8.77;8.00;;;;;;;18.54;80.69;95782.09;5105928;27;20032;-61
2022/06/01 06:50:20;;;;;;;8.02;7.22;;;;;;;18.78;79.15;95774.72;5103582;27;20103;-61
2022/06/01 06:52:46;;;;;;;8.40;7.70;;;;;;;18.94;79.03;95776.28;5103329;27;20058;-61
2022/06/01 06:55:11;;;;;;;9.05;8.23;;;;;;;19.25;78.41;95769.81;5097659;27;20040;-63
2022/06/01 06:57:37;;;;;;;7.35;5.25;;;;;;;19.32;75.87;95781.34;5110012;27;20587;-61
2022/06/01 07:00:07;;;;;;;5.93;5.03;;;;;;;19.25;74.30;95776.97;5097469;27;20101;-61
2022/06/01 07:02:33;;;;;;;6.43;4.20;;;;;;;19.03;74.78;95777.00;5103644;27;20016;-61
2022/06/01 07:05:00;;;;;;;4.70;3.58;;;;;;;18.77;76.90;95773.06;5110003;27;20044;-62
2022/06/01 07:07:25;;;;;;;4.15;3.05;;;;;;;17.98;79.66;95775.50;5101644;27;20064;-61
2022/06/01 07:09:50;;;;;;;3.92;2.85;;;;;;;17.67;81.27;95775.72;5101504;27;20031;-61
2022/06/01 07:12:16;;;;;;;3.03;2.83;;;;;;;17.79;80.64;95776.06;5112558;27;20457;-61
2022/06/01 07:14:41;;;;;;;2.63;2.42;;;;;;;18.42;78.18;95778.25;5110001;27;20039;-61
2022/06/01 07:17:06;;;;;;;6.13;2.60;;;;;;;17.80;79.01;95775.09;5105293;27;20031;-61
2022/06/01 07:19:32;;;;;;;3.33;2.75;;;;;;;17.33;83.14;95781.41;5085241;28;20035;-61
2022/06/01 07:21:57;;;;;;;3.63;2.88;;;;;;;17.03;84.03;95778.72;5103622;27;20040;-61
2022/06/01 07:24:23;;;;;;;3.20;2.90;;;;;;;17.00;84.71;95765.75;5108519;27;20051;-61
2022/06/01 07:26:49;;;;;;;2.78;2.58;;;;;;;17.00;84.81;95771.06;5102403;27;20026;-61
2022/06/01 07:29:18;;;;;;;4.13;3.53;;;;;;;17.52;81.72;95768.56;5101256;28;20024;-61
2022/06/01 07:31:45;;;;;;;12.05;3.13;;;;;;;17.25;83.24;95770.03;5095820;27;20027;-61
2022/06/01 07:34:11;;;;;;;3.47;3.20;;;;;;;16.96;84.31;95774.25;5102978;27;20030;-60
2022/06/01 07:36:36;;;;;;;3.75;3.45;;;;;;;16.93;85.83;95778.09;5100160;27;20035;-61
2022/06/01 07:44:49;;;;;;;8.40;3.55;;;;;;;17.56;82.36;95777.84;5108280;27;20065;-61
2022/06/01 07:47:15;;;;;;;3.60;2.67;;;;;;;17.80;80.29;95778.56;5107904;27;20023;-61
2022/06/01 07:49:40;;;;;;;3.58;3.20;;;;;;;17.75;80.80;95787.09;5104555;28;20071;-61
2022/06/01 07:52:10;;;;;;;5.38;3.20;;;;;;;17.31;80.82;95795.91;5097804;28;20012;-61
2022/06/01 07:54:40;;;;;;;3.22;2.90;;;;;;;17.10;82.16;95797.41;5106579;28;20105;-61
2022/06/01 07:57:06;;;;;;;5.65;3.47;;;;;;;17.07;82.54;95792.47;5102282;27;20023;-61
2022/06/01 07:59:32;;;;;;;4.65;3.20;;;;;;;16.90;84.64;95800.53;5103135;28;20496;-61
2022/06/01 08:01:57;;;;;;;4.20;3.33;;;;;;;16.77;85.18;95808.31;5080145;28;20023;-61
2022/06/01 08:04:23;;;;;;;3.50;3.25;;;;;;;16.99;83.41;95811.97;5102591;28;20028;-61
2022/06/01 08:06:48;;;;;;;3.60;3.13;;;;;;;17.07;83.09;95821.72;5096592;28;20022;-61
2022/06/01 08:09:14;;;;;;;3.25;2.95;;;;;;;16.80;84.79;95817.75;5101138;28;20020;-61
2022/06/01 08:14:23;;;;;;;2.83;2.63;;;;;;;16.61;85.79;95817.25;5106408;28;20030;-61
2022/06/01 08:16:49;;;;;;;5.88;2.97;;;;;;;16.56;85.49;95819.56;5108782;28;20414;-61
2022/06/01 08:19:16;;;;;;;3.38;3.08;;;;;;;16.40;85.65;95817.84;5093130;28;20062;-61
2022/06/01 08:21:42;;;;;;;3.17;2.97;;;;;;;16.26;88.67;95812.31;5104445;27;20069;-61
2022/06/01 08:24:07;;;;;;;3.20;2.58;;;;;;;16.27;90.45;95815.78;5100365;28;20043;-61
2022/06/01 08:26:34;;;;;;;3.15;2.92;;;;;;;16.33;88.45;95813.25;5106850;28;20038;-61
2022/06/01 08:28:59;;;;;;;3.42;3.20;;;;;;;16.30;89.36;95818.06;5103070;27;20030;-61
2022/06/01 08:31:27;;;;;;;4.68;3.30;;;;;;;16.27;89.73;95813.97;5110743;27;20028;-61
2022/06/01 08:34:03;;;;;;;5.25;3.40;;;;;;;16.28;89.88;95826.25;5115881;27;20118;-60
2022/06/01 08:36:29;;;;;;;4.80;3.10;;;;;;;16.25;89.34;95823.09;5108127;27;20112;-61
2022/06/01 08:38:54;;;;;;;3.50;3.20;;;;;;;16.23;90.41;95825.91;5111858;27;20114;-61
2022/06/01 08:41:25;;;;;;;3.83;3.63;;;;;;;16.13;91.44;95834.09;5110136;27;20482;-61
2022/06/01 08:43:54;;;;;;;4.50;4.10;;;;;;;16.13;91.84;95838.59;5106829;27;20081;-61
2022/06/01 08:46:22;;;;;;;4.05;3.65;;;;;;;16.27;90.39;95837.03;5085371;27;20033;-61
2022/06/01 08:48:52;;;;;;;3.95;3.65;;;;;;;15.96;91.71;95837.84;5104195;27;20452;-62
2022/06/01 08:51:21;;;;;;;8.88;4.50;;;;;;;15.85;92.61;95841.66;5104548;27;20030;-61
2022/06/01 08:53:47;;;;;;;4.22;3.92;;;;;;;15.76;93.88;95844.31;5106392;27;20031;-61
2022/06/01 08:56:18;;;;;;;4.00;3.67;;;;;;;15.65;94.46;95851.81;5105279;27;20056;-61
2022/06/01 08:59:01;;;;;;;7.25;3.90;;;;;;;15.71;94.07;95849.31;5115644;27;20023;-61
2022/06/01 09:01:32;;;;;;;3.92;3.53;;;;;;;15.90;93.04;95849.97;5107747;27;20024;-61
2022/06/01 09:04:29;;;;;;;6.22;4.50;;;;;;;15.72;93.52;95861.59;5107765;27;20390;-61
2022/06/01 09:07:03;;;;;;;3.75;3.55;;;;;;;15.74;95.67;95862.25;5112703;27;20019;-61
2022/06/01 09:10:02;;;;;;;6.05;4.93;;;;;;;15.91;94.85;95864.91;5107791;27;20566;-61
2022/06/01 09:12:28;;;;;;;7.13;5.72;;;;;;;15.97;95.50;95858.91;5106815;27;20559;-61
2022/06/01 09:14:57;;;;;;;6.82;4.82;;;;;;;16.03;94.13;95860.03;5104899;27;20028;-61
2022/06/01 09:17:22;;;;;;;4.93;4.53;;;;;;;16.01;93.54;95854.88;5106876;27;20118;-61
2022/06/01 09:22:41;;;;;;;5.88;4.05;;;;;;;15.95;94.29;95846.81;5109056;27;20157;-61
2022/06/01 09:25:09;;;;;;;5.10;4.70;;;;;;;15.98;96.79;95844.63;5110950;27;20494;-61
2022/06/01 09:27:42;;;;;;;4.30;4.00;;;;;;;15.97;96.68;95842.16;5105929;27;20031;-61
2022/06/01 09:30:21;;;;;;;5.68;3.90;;;;;;;16.00;94.62;95833.84;5102558;27;20024;-61
2022/06/01 09:33:04;;;;;;;4.32;4.00;;;;;;;16.04;94.23;95829.81;5108763;27;20340;-61
2022/06/01 09:35:38;;;;;;;4.40;4.00;;;;;;;15.99;96.21;95826.88;5106730;27;20035;-61
2022/06/01 09:38:11;;;;;;;7.38;4.20;;;;;;;15.97;95.82;95816.41;5111938;27;20024;-61
2022/06/01 09:40:37;;;;;;;5.05;4.65;;;;;;;16.08;95.50;95822.34;5110234;27;20166;-61
2022/06/01 09:43:03;;;;;;;4.60;4.30;;;;;;;16.36;94.21;95814.75;5106463;27;20440;-61
2022/06/01 09:45:48;;;;;;;7.05;6.45;;;;;;;16.57;93.39;95830.03;5102688;27;20039;-61
2022/06/01 09:48:37;;;;;;;8.85;8.13;;;;;;;16.66;92.12;95822.00;5111769;27;20027;-61
2022/06/01 09:51:22;;;;;;;6.88;6.28;;;;;;;16.82;90.94;95811.25;5097948;27;20426;-61
2022/06/01 09:54:07;;;;;;;12.13;10.88;;;;;;;16.97;92.63;95811.28;5104901;27;20024;-61
2022/06/01 09:56:40;;;;;;;15.38;13.98;;;;;;;17.24;89.99;95821.59;5087075;27;20040;-61
2022/06/01 10:07:30;;;;;;;10.25;9.35;;;;;;;18.16;84.95;95827.59;5106759;27;20080;-61
2022/06/01 10:09:59;;;;;;;10.85;8.15;;;;;;;18.11;86.11;95830.00;5098078;27;20055;-61
2022/06/01 10:12:44;;;;;;;7.18;6.65;;;;;;;17.92;85.97;95837.50;5101842;27;20032;-61
2022/06/01 10:15:31;;;;;;;;;;;;;;;17.85;85.01;95840.06;5088247;28;20030;-61
2022/06/01 10:18:09;;;;;;;4.32;3.92;;;;;;;17.86;85.58;95843.56;5099495;27;20448;-61
2022/06/01 10:20:41;;;;;;;8.77;3.80;;;;;;;18.16;84.93;95843.56;5112144;27;20115;-61
2022/06/01 10:23:19;;;;;;;4.65;3.25;;;;;;;18.40;83.99;95845.09;5100383;27;20062;-61
2022/06/01 10:25:52;;;;;;;6.28;3.38;;;;;;;18.37;83.04;95841.97;5105456;27;20489;-62
2022/06/01 10:28:20;;;;;;;5.10;3.88;;;;;;;18.52;83.20;95837.44;5099835;27;20028;-61
2022/06/01 10:30:51;;;;;;;3.75;3.35;;;;;;;18.60;82.40;95839.16;5105389;27;20063;-62
2022/06/01 10:33:23;;;;;;;6.07;3.15;;;;;;;18.61;83.02;95836.28;5102573;27;20020;-61
2022/06/01 10:36:18;;;;;;;3.15;2.95;;;;;;;18.77;82.49;95839.75;5113772;27;20023;-61
2022/06/01 10:38:54;;;;;;;4.25;3.00;;;;;;;19.18;81.46;95839.13;5088777;27;20067;-61
2022/06/01 10:41:28;;;;;;;3.50;2.75;;;;;;;19.45;79.18;95838.50;5108850;27;20486;-61
2022/06/01 10:44:02;;;;;;;3.58;3.28;;;;;;;19.69;78.14;95837.22;5108972;27;20023;-62
2022/06/01 10:46:54;;;;;;;3.60;3.30;;;;;;;19.88;76.92;95841.03;5102863;27;20031;-61
2022/06/01 10:49:48;;;;;;;8.75;3.38;;;;;;;19.82;76.36;95841.00;5104226;27;20047;-61
2022/06/01 10:52:29;;;;;;;3.55;2.80;;;;;;;19.63;74.96;95837.19;5099670;27;20068;-61
2022/06/01 10:55:17;;;;;;;3.47;3.15;;;;;;;19.12;77.48;95847.91;5106299;27;20499;-61
2022/06/01 10:57:46;;;;;;;2.97;2.78;;;;;;;19.14;77.93;95839.69;5106086;27;20030;-61
2022/06/01 11:00:18;;;;;;;9.27;2.50;;;;;;;18.99;79.05;95848.59;5099440;27;20024;-61
2022/06/01 11:03:21;;;;;;;2.85;2.65;;;;;;;18.97;78.49;95852.44;5107723;27;20482;-61
2022/06/01 11:06:05;;;;;;;2.95;2.70;;;;;;;18.74;80.22;95848.13;5104579;27;20026;-62
2022/06/01 11:08:42;;;;;;;2.67;2.47;;;;;;;18.70;80.83;95844.19;5106604;27;20684;-61
2022/06/01 11:11:15;;;;;;;2.58;2.38;;;;;;;18.68;80.37;95847.03;5108503;27;20525;-61
2022/06/01 11:13:59;;;;;;;2.58;2.38;;;;;;;18.59;78.67;95841.00;5106100;27;20031;-61
2022/06/01 11:16:47;;;;;;;3.40;3.10;;;;;;;18.42;79.38;95856.41;5103228;27;20032;-61
2022/06/01 11:19:27;;;;;;;2.80;2.60;;;;;;;18.58;79.39;95851.88;5106934;28;20379;-61
2022/06/01 11:22:08;;;;;;;4.78;2.80;;;;;;;18.85;78.04;95860.94;5101986;27;20085;-61
2022/06/01 11:24:48;;;;;;;5.70;3.45;;;;;;;18.79;77.21;95867.03;5105742;27;20111;-61
2022/06/01 11:27:39;;;;;;;4.72;2.72;;;;;;;18.68;77.45;95864.84;5101791;27;20024;-61
2022/06/01 11:30:20;;;;;;;6.45;3.22;;;;;;;18.65;77.10;95873.25;5100319;28;20055;-61
2022/06/01 11:33:01;;;;;;;3.70;2.63;;;;;;;18.78;76.59;95865.41;5105954;28;20055;-61
2022/06/01 11:35:57;;;;;;;4.82;2.50;;;;;;;19.04;76.78;95869.38;5106414;27;20169;-61
2022/06/01 11:38:30;;;;;;;2.85;2.65;;;;;;;19.17;77.43;95876.66;5087095;28;20028;-61
2022/06/01 11:41:01;;;;;;;3.20;2.92;;;;;;;19.27;78.09;95887.00;5099443;27;20024;-61
2022/06/01 11:43:36;;;;;;;3.15;2.80;;;;;;;19.03;78.78;95881.06;5108917;27;20031;-61
2022/06/01 11:46:14;;;;;;;5.28;2.88;;;;;;;18.75;80.64;95881.78;5099713;28;20028;-61
2022/06/01 11:48:48;;;;;;;4.30;2.95;;;;;;;18.65;82.19;95876.75;5104908;27;20046;-61
2022/06/01 11:51:19;;;;;;;4.68;3.17;;;;;;;18.77;81.59;95874.41;5101251;27;20036;-61
2022/06/01 11:54:00;;;;;;;3.25;2.88;;;;;;;18.79;79.96;95876.88;5109582;28;20031;-61
2022/06/01 11:57:00;;;;;;;4.03;2.40;;;;;;;19.06;76.69;95880.66;5107898;28;20418;-62
2022/06/01 11:59:25;;;;;;;3.42;2.65;;;;;;;19.36;75.08;95867.19;5082646;28;20058;-61
2022/06/01 12:02:41;;;;;;;2.55;2.45;;;;;;;19.50;74.13;95864.59;5105725;28;20541;-61
2022/06/01 12:05:19;;;;;;;3.83;2.40;;;;;;;19.20;74.99;95864.78;5106537;27;20020;-61
2022/06/01 12:07:52;;;;;;;2.75;2.55;;;;;;;19.00;74.58;95868.91;5107841;27;20471;-61